Time;durP1;ratioP1;P1;durP2;ratioP2;P2;SDS_P1;SDS_P2;PMS_P1;PMS_P2;Temp;Humidity;BMP_temperature;BMP_pressure;BME280_temperature;BME280_humidity;BME280_pressure;Samples;Min_cycle;Max_cycle;Signal;HPM_P1;HPM_P2
2022/08/31 00:03:55;;;;;;;2.50;1.10;;;14.60;99.90;;;;;;5065256;28;20205;-69
2022/08/31 00:06:21;;;;;;;2.07;1.13;;;14.60;99.90;;;;;;5049903;28;20237;-70
2022/08/31 00:08:47;;;;;;;1.33;1.17;;;14.60;99.90;;;;;;5066854;28;20290;-70
2022/08/31 00:11:13;;;;;;;1.23;1.13;;;14.60;99.90;;;;;;5050227;28;20277;-72
2022/08/31 00:13:40;;;;;;;1.57;1.30;;;14.50;99.90;;;;;;5049892;28;20198;-72
2022/08/31 00:16:08;;;;;;;1.27;1.17;;;14.40;99.90;;;;;;5068786;28;20187;-70
2022/08/31 00:18:34;;;;;;;2.03;1.30;;;14.40;99.90;;;;;;5064377;28;20186;-70
2022/08/31 00:20:59;;;;;;;2.13;1.17;;;14.40;99.90;;;;;;5069297;28;20228;-70
2022/08/31 00:23:25;;;;;;;1.37;1.20;;;14.40;99.90;;;;;;5062784;28;20251;-71
2022/08/31 00:25:51;;;;;;;1.10;1.10;;;14.30;99.90;;;;;;5068782;28;20668;-71
2022/08/31 00:28:18;;;;;;;3.03;1.50;;;14.30;99.90;;;;;;5061704;28;20190;-71
2022/08/31 00:30:44;;;;;;;3.17;1.20;;;14.30;99.90;;;;;;5068901;28;20209;-72
2022/08/31 00:33:10;;;;;;;1.90;1.10;;;14.30;99.90;;;;;;5060270;28;20575;-71
2022/08/31 00:35:40;;;;;;;1.10;1.10;;;14.20;99.90;;;;;;5069048;28;20201;-71
2022/08/31 00:38:07;;;;;;;1.40;1.30;;;14.20;99.90;;;;;;5059438;28;20204;-71
2022/08/31 00:40:34;;;;;;;1.50;1.40;;;14.20;99.90;;;;;;5069114;28;20194;-71
2022/08/31 00:43:00;;;;;;;2.20;1.50;;;14.20;99.90;;;;;;5047500;28;20215;-71
2022/08/31 00:45:26;;;;;;;1.80;1.53;;;14.20;99.90;;;;;;5068129;28;20182;-71
2022/08/31 00:47:52;;;;;;;2.80;1.67;;;14.20;99.90;;;;;;5047609;28;20195;-71
2022/08/31 00:50:21;;;;;;;2.20;1.27;;;14.20;99.90;;;;;;5067952;28;20271;-71
2022/08/31 00:52:51;;;;;;;1.80;1.30;;;14.10;99.90;;;;;;5047069;28;20203;-68
2022/08/31 00:55:27;;;;;;;1.90;1.50;;;14.00;99.90;;;;;;5048811;28;20217;-72
2022/08/31 00:57:56;;;;;;;1.00;1.00;;;14.00;99.90;;;;;;5056706;28;20229;-69
2022/08/31 01:00:25;;;;;;;1.93;1.37;;;14.00;99.90;;;;;;5068519;28;20190;-70
2022/08/31 01:02:51;;;;;;;2.13;1.70;;;13.90;99.90;;;;;;5046943;28;20203;-69
2022/08/31 01:05:18;;;;;;;3.33;1.30;;;13.90;99.90;;;;;;5067919;28;20607;-70
2022/08/31 01:07:46;;;;;;;2.63;1.13;;;13.90;99.90;;;;;;5046805;28;20199;-69
2022/08/31 01:10:13;;;;;;;2.43;1.50;;;13.90;99.90;;;;;;5068177;28;20639;-69
2022/08/31 01:12:40;;;;;;;2.40;1.30;;;13.90;99.90;;;;;;5047324;28;20407;-68
2022/08/31 01:15:07;;;;;;;3.23;2.33;;;13.80;99.90;;;;;;5048607;28;20190;-68
2022/08/31 01:17:34;;;;;;;2.10;1.90;;;13.80;99.90;;;;;;5062868;28;20209;-70
2022/08/31 01:20:18;;;;;;;2.40;1.63;;;13.80;99.90;;;;;;5068725;28;20177;-68
2022/08/31 01:23:03;;;;;;;1.50;1.40;;;13.90;99.90;;;;;;5054443;28;20206;-68
2022/08/31 01:25:29;;;;;;;2.17;1.50;;;14.00;99.90;;;;;;5047278;28;20690;-68
2022/08/31 01:27:56;;;;;;;1.53;1.43;;;14.10;99.90;;;;;;5065787;28;20198;-70
2022/08/31 01:30:24;;;;;;;6.10;1.70;;;14.10;99.90;;;;;;5068417;28;20239;-69
2022/08/31 01:32:50;;;;;;;3.00;1.80;;;14.20;99.90;;;;;;5046985;28;20206;-68
2022/08/31 01:35:16;;;;;;;2.90;1.80;;;14.30;99.90;;;;;;5066913;28;20728;-69
2022/08/31 01:37:42;;;;;;;1.70;1.40;;;14.30;99.90;;;;;;5046901;28;20195;-68
2022/08/31 01:40:09;;;;;;;1.60;1.50;;;14.40;99.90;;;;;;5048208;28;20270;-68
2022/08/31 01:42:34;;;;;;;2.00;1.90;;;14.40;99.90;;;;;;5065785;28;20214;-69
2022/08/31 01:45:01;;;;;;;1.83;1.47;;;14.40;99.90;;;;;;5068229;28;20659;-68
2022/08/31 01:47:26;;;;;;;2.20;1.73;;;14.50;99.90;;;;;;5065942;28;20186;-69
2022/08/31 01:49:52;;;;;;;1.90;1.80;;;14.50;99.90;;;;;;5067953;28;20214;-69
2022/08/31 01:52:17;;;;;;;4.67;1.50;;;14.50;99.90;;;;;;5046783;28;20194;-68
2022/08/31 01:54:43;;;;;;;5.67;1.60;;;14.50;99.90;;;;;;5047934;28;20449;-69
2022/08/31 01:57:09;;;;;;;3.53;1.43;;;14.50;99.90;;;;;;5064944;28;20202;-69
2022/08/31 01:59:35;;;;;;;1.63;1.40;;;14.50;99.90;;;;;;5068011;28;20807;-68
2022/08/31 02:02:00;;;;;;;2.03;1.10;;;14.50;99.90;;;;;;5065588;28;20293;-69
2022/08/31 02:04:27;;;;;;;1.53;1.33;;;14.50;99.90;;;;;;5067870;28;20324;-69
2022/08/31 02:06:56;;;;;;;3.33;1.30;;;14.50;99.90;;;;;;5067567;28;20747;-68
2022/08/31 02:09:21;;;;;;;2.40;1.37;;;14.50;99.90;;;;;;5047710;28;20265;-68
2022/08/31 02:11:47;;;;;;;3.77;1.40;;;14.50;99.90;;;;;;5066915;28;20286;-68
2022/08/31 02:14:14;;;;;;;1.73;1.40;;;14.60;99.90;;;;;;5065314;28;20256;-69
2022/08/31 02:16:40;;;;;;;1.13;1.07;;;14.60;99.90;;;;;;5048185;28;20735;-69
2022/08/31 02:19:05;;;;;;;1.40;1.30;;;14.60;99.90;;;;;;5047543;28;20306;-68
2022/08/31 02:21:31;;;;;;;3.33;1.50;;;14.60;99.90;;;;;;5066817;28;20306;-69
2022/08/31 02:23:57;;;;;;;4.13;1.60;;;14.60;99.90;;;;;;5062534;28;20190;-69
2022/08/31 02:26:23;;;;;;;2.37;1.70;;;14.60;99.90;;;;;;5067188;28;20228;-69
2022/08/31 02:28:48;;;;;;;2.70;1.30;;;14.60;99.90;;;;;;5061038;28;20191;-69
2022/08/31 02:31:14;;;;;;;4.00;1.40;;;14.60;99.90;;;;;;5067255;28;20252;-69
2022/08/31 02:33:39;;;;;;;2.73;1.60;;;14.60;99.90;;;;;;5059746;28;20213;-69
2022/08/31 02:36:05;;;;;;;3.43;1.50;;;14.50;99.90;;;;;;5066973;28;20248;-69
2022/08/31 02:38:32;;;;;;;3.60;1.87;;;14.50;99.90;;;;;;5058064;28;20202;-69
2022/08/31 02:40:58;;;;;;;2.23;2.03;;;14.50;99.90;;;;;;5067311;28;20210;-68
2022/08/31 02:43:24;;;;;;;2.60;1.53;;;14.50;99.90;;;;;;5056946;28;20551;-68
2022/08/31 02:45:49;;;;;;;3.70;1.93;;;14.60;99.90;;;;;;5067337;28;20218;-69
2022/08/31 02:48:14;;;;;;;3.63;2.23;;;14.50;99.90;;;;;;5049478;28;20665;-69
2022/08/31 02:50:42;;;;;;;1.70;1.60;;;14.50;99.90;;;;;;5070403;28;20214;-68
2022/08/31 02:53:09;;;;;;;2.10;1.90;;;14.50;99.90;;;;;;5049166;28;20669;-68
2022/08/31 02:55:35;;;;;;;2.60;1.67;;;14.50;99.90;;;;;;5070580;28;20202;-68
2022/08/31 02:58:01;;;;;;;2.00;1.90;;;14.50;99.90;;;;;;5049776;28;20271;-69
2022/08/31 03:00:26;;;;;;;5.03;2.83;;;14.50;99.90;;;;;;5050858;28;20190;-69
2022/08/31 03:02:53;;;;;;;2.83;2.03;;;14.50;99.90;;;;;;5068227;28;20264;-69
2022/08/31 03:05:19;;;;;;;2.47;2.27;;;14.40;99.90;;;;;;5070965;28;20174;-68
2022/08/31 03:07:45;;;;;;;4.37;2.23;;;14.40;99.90;;;;;;5068843;28;20202;-69
2022/08/31 03:10:13;;;;;;;8.13;2.33;;;14.40;99.90;;;;;;5070891;28;20181;-69
2022/08/31 03:12:39;;;;;;;2.57;2.37;;;14.40;99.90;;;;;;5068897;28;20272;-68
2022/08/31 03:15:06;;;;;;;2.33;2.13;;;14.50;99.90;;;;;;5070571;28;20302;-65
2022/08/31 03:17:33;;;;;;;4.77;2.27;;;14.50;99.90;;;;;;5068558;28;20251;-65
2022/08/31 03:20:01;;;;;;;6.00;2.70;;;14.50;99.90;;;;;;5070875;28;20682;-65
2022/08/31 03:22:28;;;;;;;3.90;1.60;;;14.40;99.90;;;;;;5068341;28;20233;-66
2022/08/31 03:24:54;;;;;;;2.23;2.03;;;14.40;99.90;;;;;;5070296;28;20217;-66
2022/08/31 03:27:20;;;;;;;2.27;2.07;;;14.40;99.90;;;;;;5068487;28;20686;-66
2022/08/31 03:29:45;;;;;;;4.10;2.90;;;14.30;99.90;;;;;;5070449;28;20174;-66
2022/08/31 03:32:12;;;;;;;3.43;2.03;;;14.20;99.90;;;;;;5070072;28;20676;-66
2022/08/31 03:34:38;;;;;;;4.77;2.50;;;14.10;99.90;;;;;;5068525;28;20238;-65
2022/08/31 03:37:04;;;;;;;3.60;1.80;;;13.90;99.90;;;;;;5070072;28;20248;-65
2022/08/31 03:39:29;;;;;;;2.47;2.27;;;13.90;99.90;;;;;;5067333;28;20206;-66
2022/08/31 03:41:54;;;;;;;4.37;1.97;;;13.90;99.90;;;;;;5069908;28;20271;-65
2022/08/31 03:44:22;;;;;;;2.03;1.87;;;13.80;99.90;;;;;;5065997;28;20202;-66
2022/08/31 03:46:49;;;;;;;6.00;1.90;;;13.80;99.90;;;;;;5069935;28;20190;-65
2022/08/31 03:49:17;;;;;;;3.63;2.10;;;13.70;99.90;;;;;;5064764;28;20313;-65
2022/08/31 03:51:43;;;;;;;3.77;1.90;;;13.60;99.90;;;;;;5070305;28;20182;-66
2022/08/31 03:54:08;;;;;;;2.97;2.63;;;13.60;99.90;;;;;;5063865;28;20328;-66
2022/08/31 03:56:34;;;;;;;1.73;1.63;;;13.50;99.90;;;;;;5069806;28;20198;-66
2022/08/31 03:58:59;;;;;;;2.50;2.03;;;13.50;99.90;;;;;;5061560;28;20202;-66
2022/08/31 04:01:25;;;;;;;3.60;2.03;;;13.50;99.90;;;;;;5069039;28;20286;-66
2022/08/31 04:03:50;;;;;;;2.70;2.10;;;13.40;99.90;;;;;;5060961;28;20194;-66
2022/08/31 04:06:16;;;;;;;3.53;1.90;;;13.40;99.90;;;;;;5069403;28;20178;-66
2022/08/31 04:08:41;;;;;;;2.30;2.00;;;13.30;99.90;;;;;;5059475;28;20201;-66
2022/08/31 04:11:13;;;;;;;2.73;2.17;;;13.30;99.90;;;;;;5069292;28;20211;-66
2022/08/31 04:13:39;;;;;;;2.17;1.90;;;13.30;99.90;;;;;;5047779;28;20272;-65
2022/08/31 04:16:08;;;;;;;2.50;1.80;;;13.30;99.90;;;;;;5068680;28;20655;-66
2022/08/31 04:18:35;;;;;;;5.13;2.00;;;13.30;99.90;;;;;;5047771;28;20221;-67
2022/08/31 04:21:01;;;;;;;4.40;2.50;;;13.20;99.90;;;;;;5068844;28;20186;-67
2022/08/31 04:23:28;;;;;;;1.93;1.73;;;13.20;99.90;;;;;;5047728;28;20219;-64
2022/08/31 04:25:56;;;;;;;2.40;2.20;;;13.20;99.90;;;;;;5068316;28;20197;-67
2022/08/31 04:28:22;;;;;;;3.57;2.90;;;13.20;99.90;;;;;;5047425;28;20195;-67
2022/08/31 04:30:48;;;;;;;2.60;2.27;;;13.20;99.90;;;;;;5068258;28;20190;-67
2022/08/31 04:33:15;;;;;;;3.53;2.23;;;13.20;99.90;;;;;;5047582;28;20245;-64
2022/08/31 04:35:41;;;;;;;3.87;2.20;;;13.20;99.90;;;;;;5049117;28;20207;-64
2022/08/31 04:38:08;;;;;;;3.43;2.00;;;13.20;99.90;;;;;;5066217;28;20198;-65
2022/08/31 04:40:37;;;;;;;4.17;2.00;;;13.10;99.90;;;;;;5069063;28;20190;-65
2022/08/31 04:43:03;;;;;;;3.33;1.80;;;13.10;99.90;;;;;;5066636;28;20206;-67
2022/08/31 04:45:28;;;;;;;5.20;2.20;;;13.00;99.90;;;;;;5068943;28;21037;-67
2022/08/31 04:47:54;;;;;;;2.87;2.67;;;13.00;99.90;;;;;;5066408;28;20277;-70
2022/08/31 04:50:21;;;;;;;5.07;2.40;;;13.00;99.90;;;;;;5068458;28;20644;-68
2022/08/31 04:52:49;;;;;;;3.80;2.17;;;13.00;99.90;;;;;;5047129;28;20203;-69
2022/08/31 04:55:15;;;;;;;5.03;2.73;;;13.00;99.90;;;;;;5048872;28;20186;-69
2022/08/31 04:57:41;;;;;;;4.70;2.20;;;13.00;99.90;;;;;;5066094;28;20217;-67
2022/08/31 05:00:08;;;;;;;2.33;1.93;;;13.10;99.90;;;;;;5068687;28;20224;-68
2022/08/31 05:02:34;;;;;;;3.90;2.50;;;13.10;99.90;;;;;;5066228;28;20547;-68
2022/08/31 05:05:00;;;;;;;4.60;2.47;;;13.10;99.90;;;;;;5068696;28;20182;-68
2022/08/31 05:07:25;;;;;;;3.37;2.83;;;13.10;99.90;;;;;;5068149;28;20191;-68
2022/08/31 05:09:52;;;;;;;4.20;2.50;;;13.10;99.90;;;;;;5065243;28;20216;-68
2022/08/31 05:12:18;;;;;;;6.17;2.50;;;13.10;99.90;;;;;;5067721;28;20194;-68
2022/08/31 05:14:43;;;;;;;4.60;2.60;;;13.20;99.90;;;;;;5064640;28;20202;-68
2022/08/31 05:17:09;;;;;;;2.23;2.03;;;13.20;99.90;;;;;;5067904;28;20198;-67
2022/08/31 05:19:35;;;;;;;5.37;2.37;;;13.30;99.90;;;;;;5063376;28;20190;-68
2022/08/31 05:22:01;;;;;;;3.37;2.30;;;13.30;99.90;;;;;;5067986;28;20580;-69
2022/08/31 05:24:27;;;;;;;5.77;3.10;;;13.40;99.90;;;;;;5061372;28;20252;-67
2022/08/31 05:26:54;;;;;;;4.10;2.40;;;13.40;99.90;;;;;;5068099;28;20174;-67
2022/08/31 05:29:23;;;;;;;3.83;2.30;;;13.50;99.90;;;;;;5060760;28;20684;-68
2022/08/31 05:31:49;;;;;;;2.87;2.40;;;13.40;99.90;;;;;;5067749;28;20198;-69
2022/08/31 05:34:16;;;;;;;2.30;2.20;;;13.50;99.90;;;;;;5059831;28;20706;-69
2022/08/31 05:36:43;;;;;;;2.07;1.90;;;13.50;99.90;;;;;;5067679;28;20202;-69
2022/08/31 05:39:10;;;;;;;2.87;1.90;;;13.60;99.90;;;;;;5058684;28;20244;-69
2022/08/31 05:41:38;;;;;;;3.20;1.83;;;13.60;99.90;;;;;;5067277;28;20213;-68
2022/08/31 05:44:04;;;;;;;2.10;2.00;;;13.70;99.90;;;;;;5057648;28;20604;-69
2022/08/31 05:46:30;;;;;;;6.13;2.70;;;13.70;99.90;;;;;;5067638;28;20190;-67
2022/08/31 05:48:55;;;;;;;2.20;2.00;;;13.80;99.90;;;;;;5046232;28;20197;-67
2022/08/31 05:51:21;;;;;;;4.63;2.00;;;13.90;99.90;;;;;;5067777;28;20684;-69
2022/08/31 05:53:47;;;;;;;3.50;2.00;;;13.90;99.90;;;;;;5046228;28;20205;-68
2022/08/31 05:56:19;;;;;;;1.73;1.63;;;14.00;99.90;;;;;;5066981;28;20187;-68
2022/08/31 05:58:46;;;;;;;3.33;1.70;;;14.10;99.90;;;;;;5065585;28;20552;-67
2022/08/31 06:01:13;;;;;;;3.23;2.53;;;14.20;99.90;;;;;;5047886;28;20190;-67
2022/08/31 06:03:39;;;;;;;7.03;2.03;;;14.30;99.90;;;;;;5065353;28;20231;-67
2022/08/31 06:06:07;;;;;;;2.47;1.60;;;14.30;99.90;;;;;;5067584;28;20260;-67
2022/08/31 06:08:34;;;;;;;9.80;7.63;;;14.40;99.90;;;;;;5065623;28;20711;-67
2022/08/31 06:11:00;;;;;;;2.47;2.27;;;14.50;99.90;;;;;;5067288;28;20179;-67
2022/08/31 06:13:25;;;;;;;4.30;1.53;;;14.50;99.90;;;;;;5065316;28;20244;-65
2022/08/31 06:15:52;;;;;;;2.17;1.70;;;14.70;99.90;;;;;;5067582;28;20182;-67
2022/08/31 06:18:19;;;;;;;3.17;1.83;;;14.70;99.90;;;;;;5065295;28;20194;-67
2022/08/31 06:20:45;;;;;;;2.60;2.40;;;14.90;99.90;;;;;;5067570;28;20187;-67
2022/08/31 06:23:11;;;;;;;3.93;1.83;;;14.90;99.90;;;;;;5067438;28;20300;-68
2022/08/31 06:25:36;;;;;;;2.43;1.80;;;15.00;99.90;;;;;;5070858;28;20188;-67
2022/08/31 06:28:05;;;;;;;1.77;1.27;;;15.20;99.90;;;;;;5050111;28;20179;-67
2022/08/31 06:30:35;;;;;;;2.23;1.50;;;15.30;99.90;;;;;;5051396;28;20210;-67
2022/08/31 06:33:01;;;;;;;2.73;1.50;;;15.50;99.90;;;;;;5069417;28;20233;-68
2022/08/31 06:35:26;;;;;;;8.33;2.33;;;15.60;99.90;;;;;;5071302;28;20292;-68
2022/08/31 06:37:52;;;;;;;2.10;1.20;;;15.70;99.90;;;;;;5069193;28;20660;-69
2022/08/31 06:40:18;;;;;;;2.00;0.90;;;15.90;99.90;;;;;;5071143;28;20170;-69
2022/08/31 06:42:43;;;;;;;3.13;0.93;;;16.00;99.90;;;;;;5071272;28;20210;-66
2022/08/31 06:45:10;;;;;;;2.47;0.90;;;16.20;99.90;;;;;;5057481;28;20281;-65
2022/08/31 06:47:35;;;;;;;6.47;1.70;;;16.30;99.90;;;;;;5070287;28;20186;-65
2022/08/31 06:50:01;;;;;;;4.83;1.60;;;16.40;99.90;;;;;;5067027;28;20214;-65
2022/08/31 06:52:27;;;;;;;4.10;1.43;;;16.60;99.90;;;;;;5051109;28;20196;-64
2022/08/31 06:54:52;;;;;;;1.77;1.27;;;16.70;99.90;;;;;;5052219;28;20206;-65
2022/08/31 06:57:18;;;;;;;3.40;1.50;;;16.80;99.90;;;;;;5070226;28;20662;-63
2022/08/31 06:59:46;;;;;;;2.30;1.07;;;16.90;99.90;;;;;;5064592;28;20240;-65
2022/08/31 07:02:12;;;;;;;1.50;1.13;;;17.00;99.90;;;;;;5070372;28;20198;-66
2022/08/31 07:04:38;;;;;;;1.20;1.10;;;17.10;99.90;;;;;;5063862;28;20202;-63
2022/08/31 07:07:05;;;;;;;1.20;1.07;;;17.20;99.90;;;;;;5070705;28;20232;-63
2022/08/31 07:09:31;;;;;;;1.67;1.37;;;17.30;99.90;;;;;;5061911;28;20191;-66
2022/08/31 07:11:56;;;;;;;0.87;0.87;;;17.40;99.90;;;;;;5070768;28;20182;-66
2022/08/31 07:14:24;;;;;;;3.63;1.50;;;17.50;99.90;;;;;;5061131;28;20205;-64
2022/08/31 07:16:52;;;;;;;4.73;1.50;;;17.60;99.90;;;;;;5070408;28;20222;-64
2022/08/31 07:19:19;;;;;;;1.20;1.07;;;17.60;99.90;;;;;;5048845;28;20210;-63
2022/08/31 07:21:47;;;;;;;4.47;1.67;;;17.70;99.90;;;;;;5069764;28;20276;-63
2022/08/31 07:24:16;;;;;;;2.70;1.33;;;17.70;99.90;;;;;;5048940;28;20196;-63
2022/08/31 07:26:47;;;;;;;3.13;1.13;;;17.80;99.90;;;;;;5070538;28;20197;-63
2022/08/31 07:29:16;;;;;;;4.70;1.70;;;17.90;99.90;;;;;;5048974;28;20317;-63
2022/08/31 07:31:47;;;;;;;4.07;1.20;;;17.90;99.90;;;;;;5070022;28;20198;-63
2022/08/31 07:34:25;;;;;;;1.70;0.90;;;18.00;99.90;;;;;;5057129;28;20202;-63
2022/08/31 07:42:29;;;;;;;1.27;1.10;;;18.10;99.90;;;;;;5050237;28;20692;-63
2022/08/31 07:44:58;;;;;;;2.13;1.47;;;18.20;99.90;;;;;;5063375;28;20607;-64
2022/08/31 07:47:25;;;;;;;1.80;0.90;;;18.30;99.90;;;;;;5069594;28;20551;-63
2022/08/31 07:49:53;;;;;;;2.00;1.00;;;18.40;99.90;;;;;;5062337;28;20222;-63
2022/08/31 07:52:28;;;;;;;6.87;2.00;;;18.40;99.90;;;;;;5050160;28;20205;-68
2022/08/31 07:54:58;;;;;;;21.13;3.30;;;18.50;99.90;;;;;;5053229;28;20213;-68
2022/08/31 07:57:28;;;;;;;12.33;2.00;;;18.50;99.90;;;;;;5049746;28;20194;-68
2022/08/31 08:00:03;;;;;;;4.00;1.60;;;18.60;99.90;;;;;;5058582;28;20259;-69
2022/08/31 08:02:28;;;;;;;3.63;1.17;;;18.70;99.90;;;;;;5060233;28;20588;-69
2022/08/31 08:04:54;;;;;;;5.77;2.00;;;18.80;99.90;;;;;;5058376;28;20272;-69
2022/08/31 08:07:19;;;;;;;1.77;1.20;;;18.90;99.90;;;;;;5060077;28;20266;-68
2022/08/31 08:09:45;;;;;;;1.80;1.10;;;19.00;99.90;;;;;;5058141;28;20187;-70
2022/08/31 08:12:10;;;;;;;2.77;1.10;;;19.00;99.90;;;;;;5060468;28;20182;-68
2022/08/31 08:14:37;;;;;;;1.93;1.13;;;19.00;99.90;;;;;;5058147;28;20233;-61
2022/08/31 08:17:06;;;;;;;1.83;0.73;;;19.00;99.90;;;;;;5053102;28;20187;-61
2022/08/31 08:19:32;;;;;;;3.20;1.10;;;19.00;99.90;;;;;;5057947;28;20249;-61
2022/08/31 08:22:01;;;;;;;2.00;0.67;;;19.10;99.90;;;;;;5057761;28;20207;-64
2022/08/31 08:24:28;;;;;;;2.03;0.97;;;19.10;99.90;;;;;;5057808;28;20186;-65
2022/08/31 08:26:53;;;;;;;1.00;0.70;;;19.20;99.90;;;;;;5060218;28;20200;-65
2022/08/31 08:29:19;;;;;;;0.70;0.70;;;19.30;99.90;;;;;;5060038;28;20199;-66
2022/08/31 08:31:51;;;;;;;1.30;0.90;;;19.40;99.90;;;;;;5059688;28;20212;-67
2022/08/31 08:34:18;;;;;;;0.70;0.70;;;19.40;99.90;;;;;;5067370;28;20204;-66
2022/08/31 08:36:45;;;;;;;1.10;1.00;;;19.50;99.90;;;;;;5049690;28;20673;-66
2022/08/31 08:39:10;;;;;;;1.40;0.83;;;19.60;99.90;;;;;;5066523;28;20195;-66
2022/08/31 08:41:38;;;;;;;1.70;1.20;;;19.60;99.90;;;;;;5067439;28;20212;-66
2022/08/31 08:44:08;;;;;;;2.03;1.67;;;19.60;99.90;;;;;;5047635;28;20200;-67
2022/08/31 08:46:55;;;;;;;1.00;0.90;;;19.70;99.90;;;;;;5061136;28;20215;-65
2022/08/31 08:49:21;;;;;;;2.93;0.93;;;19.70;99.90;;;;;;5058113;28;20319;-66
2022/08/31 08:51:52;;;;;;;0.97;0.70;;;19.70;99.90;;;;;;5059958;28;20292;-66
2022/08/31 08:54:37;;;;;;;1.73;0.70;;;19.70;99.90;;;;;;5060521;28;20211;-64
2022/08/31 08:57:11;;;;;;;2.03;0.80;;;19.60;99.60;;;;;;5060442;28;20205;-65
2022/08/31 08:59:37;;;;;;;1.10;1.00;;;19.70;99.90;;;;;;5059676;28;20200;-64
2022/08/31 09:02:05;;;;;;;2.00;1.20;;;19.80;99.90;;;;;;5060222;28;20204;-65
2022/08/31 09:04:51;;;;;;;2.77;0.97;;;19.90;99.90;;;;;;5062457;28;20204;-76
2022/08/31 09:07:43;;;;;;;3.50;0.77;;;20.00;99.90;;;;;;5050644;28;20647;-69
2022/08/31 09:10:32;;;;;;;1.57;1.27;;;20.20;99.90;;;;;;5061964;28;20196;-65
2022/08/31 09:13:12;;;;;;;1.10;0.77;;;20.20;99.90;;;;;;5049280;28;20219;-65
2022/08/31 09:15:49;;;;;;;1.77;0.97;;;20.40;98.40;;;;;;5065491;28;20220;-65
2022/08/31 09:18:29;;;;;;;0.80;0.80;;;20.50;98.00;;;;;;5049115;28;20805;-65
2022/08/31 09:21:20;;;;;;;2.03;0.83;;;20.60;97.80;;;;;;5048865;28;20181;-66
2022/08/31 09:23:53;;;;;;;0.90;0.90;;;20.70;97.00;;;;;;5066466;28;20209;-66
2022/08/31 09:26:24;;;;;;;1.93;1.17;;;20.80;97.40;;;;;;5068420;28;20209;-66
2022/08/31 09:28:51;;;;;;;0.93;0.80;;;20.80;98.40;;;;;;5046758;28;20279;-67
2022/08/31 09:31:36;;;;;;;1.50;0.77;;;20.80;98.30;;;;;;5052161;28;20236;-65
2022/08/31 09:34:05;;;;;;;5.40;1.00;;;20.90;97.80;;;;;;5066240;28;20496;-69
2022/08/31 09:36:39;;;;;;;2.20;1.10;;;21.00;97.50;;;;;;5068695;28;20202;-66
2022/08/31 09:39:37;;;;;;;1.80;1.00;;;21.00;98.20;;;;;;5051741;28;20605;-66
2022/08/31 09:42:33;;;;;;;0.87;0.80;;;21.20;98.60;;;;;;5026185;28;20216;-66
2022/08/31 09:45:01;;;;;;;1.33;0.90;;;21.30;98.30;;;;;;5059139;28;20209;-67
2022/08/31 09:47:52;;;;;;;2.13;1.00;;;21.40;98.10;;;;;;5059215;28;20182;-66
2022/08/31 09:50:43;;;;;;;1.40;0.60;;;21.40;96.80;;;;;;5057559;28;20308;-66
2022/08/31 09:56:21;;;;;;;1.03;0.70;;;21.50;97.40;;;;;;5048137;28;20422;-65
2022/08/31 09:58:53;;;;;;;0.90;0.80;;;21.60;97.20;;;;;;5046082;28;20270;-69
2022/08/31 10:01:28;;;;;;;1.33;1.03;;;21.70;97.50;;;;;;5048435;28;20210;-66
2022/08/31 10:04:14;;;;;;;0.93;0.57;;;21.80;96.90;;;;;;5048962;28;20733;-66
2022/08/31 10:07:13;;;;;;;1.70;0.93;;;22.00;96.00;;;;;;5068408;28;20230;-66
2022/08/31 10:10:02;;;;;;;2.40;0.90;;;22.10;96.30;;;;;;5055207;28;20201;-67
2022/08/31 10:12:44;;;;;;;0.67;0.53;;;21.90;94.90;;;;;;5046847;28;20210;-65
2022/08/31 10:15:29;;;;;;;3.00;0.80;;;21.60;94.40;;;;;;5050472;28;20840;-66
2022/08/31 10:18:12;;;;;;;2.10;0.83;;;21.50;94.10;;;;;;5048250;28;20178;-67
2022/08/31 10:20:45;;;;;;;2.20;0.83;;;21.50;94.60;;;;;;5062712;28;20217;-66
2022/08/31 10:23:33;;;;;;;0.63;0.60;;;21.60;94.10;;;;;;5053517;28;20209;-66
2022/08/31 10:26:14;;;;;;;1.40;1.30;;;21.80;93.80;;;;;;5061080;28;20189;-66
2022/08/31 10:28:49;;;;;;;2.30;0.77;;;22.00;93.90;;;;;;5057942;28;20182;-65
2022/08/31 10:31:28;;;;;;;1.93;1.20;;;22.10;93.30;;;;;;5068430;28;20934;-65
2022/08/31 10:37:07;;;;;;;0.50;0.50;;;22.00;91.70;;;;;;5068260;28;20304;-64
2022/08/31 10:39:43;;;;;;;0.90;0.60;;;21.80;91.70;;;;;;5051605;28;20205;-67
2022/08/31 10:42:15;;;;;;;0.63;0.50;;;21.80;92.40;;;;;;5053442;28;20205;-67
2022/08/31 10:44:51;;;;;;;0.77;0.70;;;21.90;93.40;;;;;;5058900;28;20225;-65
2022/08/31 10:47:18;;;;;;;0.70;0.70;;;22.00;92.10;;;;;;5059051;28;20186;-65
2022/08/31 10:49:43;;;;;;;0.73;0.70;;;22.20;90.70;;;;;;5056638;28;20966;-65
2022/08/31 10:52:17;;;;;;;1.87;0.93;;;22.30;91.20;;;;;;5056611;28;20398;-66
2022/08/31 10:55:06;;;;;;;0.90;0.77;;;22.60;92.30;;;;;;5056485;28;20198;-65
2022/08/31 10:57:44;;;;;;;1.27;0.73;;;22.80;90.60;;;;;;5058295;28;20721;-68
2022/08/31 11:03:21;;;;;;;0.87;0.87;;;22.80;89.80;;;;;;5058506;28;20271;-66
2022/08/31 11:05:55;;;;;;;2.40;0.93;;;22.80;89.60;;;;;;5062779;28;20197;-67
2022/08/31 11:08:48;;;;;;;1.33;0.60;;;22.40;89.50;;;;;;5049626;28;20544;-65
2022/08/31 11:11:37;;;;;;;0.87;0.87;;;22.30;90.20;;;;;;5051496;28;20563;-64
2022/08/31 11:14:19;;;;;;;2.33;0.73;;;22.40;91.70;;;;;;5051433;28;20649;-64
2022/08/31 11:17:02;;;;;;;1.10;0.90;;;22.60;90.70;;;;;;5070925;28;20189;-64
2022/08/31 11:20:02;;;;;;;1.17;0.70;;;22.80;90.00;;;;;;5054170;28;20740;-64
2022/08/31 11:22:36;;;;;;;0.90;0.90;;;22.70;89.70;;;;;;5043525;28;20215;-64
2022/08/31 11:25:46;;;;;;;0.70;0.70;;;22.60;89.30;;;;;;5084017;28;20532;-64
2022/08/31 11:28:30;;;;;;;0.80;0.70;;;22.60;89.40;;;;;;5050934;28;20647;-65
2022/08/31 11:31:00;;;;;;;1.13;0.80;;;22.60;90.00;;;;;;5064414;28;20552;-65
2022/08/31 11:33:27;;;;;;;2.43;0.80;;;22.70;89.50;;;;;;5056854;28;20221;-65
2022/08/31 11:36:07;;;;;;;0.77;0.77;;;22.80;88.00;;;;;;5052696;28;20225;-65
2022/08/31 11:38:53;;;;;;;2.03;1.20;;;22.60;86.60;;;;;;5050982;28;20273;-65
2022/08/31 11:41:32;;;;;;;0.68;0.68;;;22.40;86.80;;;;;;5069035;28;20754;-61
2022/08/31 11:44:03;;;;;;;0.53;0.53;;;22.40;87.80;;;;;;5059565;28;20264;-61
2022/08/31 11:46:39;;;;;;;0.73;0.60;;;22.50;87.30;;;;;;5058261;28;20593;-65
2022/08/31 11:49:05;;;;;;;0.93;0.70;;;22.90;88.20;;;;;;5049151;28;20225;-64
2022/08/31 11:51:39;;;;;;;0.60;0.57;;;23.30;86.60;;;;;;5050572;28;20527;-64
2022/08/31 11:54:13;;;;;;;0.70;0.70;;;23.50;84.50;;;;;;5068041;28;20197;-66
2022/08/31 11:56:46;;;;;;;0.93;0.88;;;23.60;83.80;;;;;;5070213;28;20257;-65
2022/08/31 11:59:33;;;;;;;2.40;1.07;;;23.70;83.40;;;;;;5068402;28;20282;-65
2022/08/31 12:02:19;;;;;;;1.57;0.77;;;23.70;83.00;;;;;;5070350;28;20570;-65
2022/08/31 12:04:50;;;;;;;0.67;0.60;;;23.90;81.70;;;;;;5054649;28;20627;-65
2022/08/31 12:07:30;;;;;;;0.93;0.70;;;24.00;79.80;;;;;;5070211;28;20228;-64
2022/08/31 12:10:15;;;;;;;1.53;0.90;;;24.20;79.90;;;;;;5055854;28;20285;-65
2022/08/31 12:13:06;;;;;;;1.60;0.80;;;24.10;76.50;;;;;;5050081;28;20297;-66
2022/08/31 12:15:48;;;;;;;1.07;0.83;;;23.80;77.10;;;;;;5060634;28;20263;-65
2022/08/31 12:25:34;;;;;;;3.10;0.90;;;23.10;77.80;;;;;;4989248;28;20196;-64
2022/08/31 12:28:38;;;;;;;1.07;0.83;;;23.30;79.90;;;;;;5069820;28;20258;-65
2022/08/31 12:31:11;;;;;;;1.57;1.20;;;23.70;78.30;;;;;;5032505;28;20715;-67
2022/08/31 12:34:02;;;;;;;1.27;0.93;;;24.20;75.60;;;;;;5049749;28;20261;-65
2022/08/31 12:36:32;;;;;;;0.90;0.67;;;24.50;74.90;;;;;;5067572;28;20613;-65
2022/08/31 12:39:22;;;;;;;1.02;0.70;;;24.70;74.20;;;;;;5069357;28;20194;-65
2022/08/31 12:42:02;;;;;;;0.87;0.80;;;24.80;73.30;;;;;;5049599;28;20207;-65
2022/08/31 12:44:40;;;;;;;1.23;0.80;;;24.60;73.50;;;;;;5050816;28;20931;-78
2022/08/31 12:47:33;;;;;;;1.23;1.10;;;24.40;73.00;;;;;;5056101;28;20494;-66
2022/08/31 12:50:17;;;;;;;2.30;0.90;;;24.20;73.40;;;;;;5054407;28;20222;-66
2022/08/31 12:53:28;;;;;;;1.58;1.00;;;24.30;75.00;;;;;;5049940;28;20226;-66
2022/08/31 12:56:29;;;;;;;0.77;0.70;;;24.70;71.50;;;;;;5062509;28;20206;-66
2022/08/31 12:59:18;;;;;;;1.92;1.02;;;25.00;70.90;;;;;;5049689;28;20191;-66
2022/08/31 13:01:48;;;;;;;0.53;0.53;;;25.20;68.30;;;;;;5049421;28;20186;-66
2022/08/31 13:04:15;;;;;;;0.50;0.50;;;25.00;69.00;;;;;;5047891;28;20676;-66
2022/08/31 13:06:43;;;;;;;3.30;1.52;;;24.90;66.70;;;;;;5069516;28;20580;-66
2022/08/31 13:09:30;;;;;;;1.60;0.98;;;24.70;68.80;;;;;;5049514;28;20698;-66
2022/08/31 13:11:58;;;;;;;1.38;0.70;;;24.70;67.00;;;;;;5049123;28;20190;-67
2022/08/31 13:14:27;;;;;;;1.35;0.77;;;24.50;67.10;;;;;;5066727;28;20191;-71
2022/08/31 13:17:05;;;;;;;0.90;0.90;;;24.50;67.30;;;;;;5068454;28;20257;-68
2022/08/31 13:19:33;;;;;;;0.70;0.70;;;24.50;68.70;;;;;;5048838;28;20284;-76
2022/08/31 13:22:08;;;;;;;2.15;1.00;;;24.40;66.40;;;;;;5068242;28;20224;-68
2022/08/31 13:24:46;;;;;;;1.25;0.77;;;24.20;66.00;;;;;;5049193;28;20274;-82
2022/08/31 13:27:20;;;;;;;0.88;0.70;;;24.20;65.60;;;;;;5068579;28;20239;-69
2022/08/31 13:29:47;;;;;;;1.40;0.80;;;24.20;66.60;;;;;;5051505;28;20191;-67
2022/08/31 13:32:31;;;;;;;1.73;0.77;;;24.50;65.90;;;;;;5048205;28;20202;-67